sensor_id;sensor_type;location;lat;lon;timestamp;P1;durP1;ratioP1;P2;durP2;ratioP2
10383;SDS011;5238;43.508;4.980;2023-08-12T00:01:36;7.85;;;3.60;;
10383;SDS011;5238;43.508;4.980;2023-08-12T00:04:03;5.65;;;3.70;;
10383;SDS011;5238;43.508;4.980;2023-08-12T00:06:30;5.57;;;3.30;;
10383;SDS011;5238;43.508;4.980;2023-08-12T00:08:57;6.35;;;3.15;;
10383;SDS011;5238;43.508;4.980;2023-08-12T00:11:24;4.05;;;3.60;;
10383;SDS011;5238;43.508;4.980;2023-08-12T00:13:52;4.60;;;3.40;;
10383;SDS011;5238;43.508;4.980;2023-08-12T00:16:19;5.43;;;3.33;;
10383;SDS011;5238;43.508;4.980;2023-08-12T00:18:46;4.45;;;3.25;;
10383;SDS011;5238;43.508;4.980;2023-08-12T00:21:13;5.45;;;3.75;;
10383;SDS011;5238;43.508;4.980;2023-08-12T00:23:40;3.33;;;3.03;;
10383;SDS011;5238;43.508;4.980;2023-08-12T00:26:08;3.33;;;3.03;;
10383;SDS011;5238;43.508;4.980;2023-08-12T00:28:35;4.05;;;3.65;;
10383;SDS011;5238;43.508;4.980;2023-08-12T00:31:03;4.30;;;3.38;;
10383;SDS011;5238;43.508;4.980;2023-08-12T00:33:30;3.97;;;3.33;;
10383;SDS011;5238;43.508;4.980;2023-08-12T00:35:57;6.47;;;3.92;;
10383;SDS011;5238;43.508;4.980;2023-08-12T00:38:24;4.97;;;3.38;;
10383;SDS011;5238;43.508;4.980;2023-08-12T00:40:51;4.63;;;3.63;;
10383;SDS011;5238;43.508;4.980;2023-08-12T00:43:18;4.50;;;3.20;;
10383;SDS011;5238;43.508;4.980;2023-08-12T00:45:45;4.13;;;3.67;;
10383;SDS011;5238;43.508;4.980;2023-08-12T00:48:13;4.80;;;3.22;;
10383;SDS011;5238;43.508;4.980;2023-08-12T00:50:42;4.05;;;3.20;;
10383;SDS011;5238;43.508;4.980;2023-08-12T00:53:09;8.10;;;3.38;;
10383;SDS011;5238;43.508;4.980;2023-08-12T00:55:37;4.75;;;3.70;;
10383;SDS011;5238;43.508;4.980;2023-08-12T00:58:04;5.75;;;3.50;;
10383;SDS011;5238;43.508;4.980;2023-08-12T01:00:32;5.63;;;3.80;;
10383;SDS011;5238;43.508;4.980;2023-08-12T01:02:59;5.60;;;3.72;;
10383;SDS011;5238;43.508;4.980;2023-08-12T01:05:30;8.05;;;3.60;;
10383;SDS011;5238;43.508;4.980;2023-08-12T01:07:57;3.85;;;3.30;;
10383;SDS011;5238;43.508;4.980;2023-08-12T01:10:24;6.25;;;3.70;;
10383;SDS011;5238;43.508;4.980;2023-08-12T01:13:03;4.60;;;3.40;;
10383;SDS011;5238;43.508;4.980;2023-08-12T01:15:39;4.35;;;3.60;;
10383;SDS011;5238;43.508;4.980;2023-08-12T01:18:09;3.53;;;3.22;;
10383;SDS011;5238;43.508;4.980;2023-08-12T01:20:39;3.78;;;3.35;;
10383;SDS011;5238;43.508;4.980;2023-08-12T01:23:09;5.05;;;4.05;;
10383;SDS011;5238;43.508;4.980;2023-08-12T01:25:37;4.40;;;3.78;;
10383;SDS011;5238;43.508;4.980;2023-08-12T01:28:04;4.32;;;3.63;;
10383;SDS011;5238;43.508;4.980;2023-08-12T01:30:32;5.32;;;4.15;;
10383;SDS011;5238;43.508;4.980;2023-08-12T01:33:01;3.60;;;3.30;;
10383;SDS011;5238;43.508;4.980;2023-08-12T01:35:37;5.63;;;3.78;;
10383;SDS011;5238;43.508;4.980;2023-08-12T01:38:08;4.90;;;3.47;;
10383;SDS011;5238;43.508;4.980;2023-08-12T01:40:38;5.85;;;3.22;;
10383;SDS011;5238;43.508;4.980;2023-08-12T01:43:06;5.05;;;3.88;;
10383;SDS011;5238;43.508;4.980;2023-08-12T01:45:33;6.70;;;3.72;;
10383;SDS011;5238;43.508;4.980;2023-08-12T01:48:00;4.35;;;3.60;;
10383;SDS011;5238;43.508;4.980;2023-08-12T01:50:28;4.22;;;3.22;;
10383;SDS011;5238;43.508;4.980;2023-08-12T01:52:55;7.63;;;3.55;;
10383;SDS011;5238;43.508;4.980;2023-08-12T01:55:25;4.03;;;3.63;;
10383;SDS011;5238;43.508;4.980;2023-08-12T01:57:52;3.85;;;3.55;;
10383;SDS011;5238;43.508;4.980;2023-08-12T02:00:18;3.42;;;3.05;;
10383;SDS011;5238;43.508;4.980;2023-08-12T02:02:45;4.95;;;3.58;;
10383;SDS011;5238;43.508;4.980;2023-08-12T02:05:12;3.33;;;2.97;;
10383;SDS011;5238;43.508;4.980;2023-08-12T02:07:40;4.20;;;3.80;;
10383;SDS011;5238;43.508;4.980;2023-08-12T02:10:07;6.15;;;3.05;;
10383;SDS011;5238;43.508;4.980;2023-08-12T02:12:36;4.68;;;3.28;;
10383;SDS011;5238;43.508;4.980;2023-08-12T02:15:03;4.68;;;3.58;;
10383;SDS011;5238;43.508;4.980;2023-08-12T02:17:30;3.90;;;3.60;;
10383;SDS011;5238;43.508;4.980;2023-08-12T02:19:57;3.72;;;3.33;;
10383;SDS011;5238;43.508;4.980;2023-08-12T02:22:24;4.60;;;3.28;;
10383;SDS011;5238;43.508;4.980;2023-08-12T02:24:51;4.47;;;3.20;;
10383;SDS011;5238;43.508;4.980;2023-08-12T02:27:18;4.35;;;3.45;;
10383;SDS011;5238;43.508;4.980;2023-08-12T02:29:46;6.25;;;3.80;;
10383;SDS011;5238;43.508;4.980;2023-08-12T02:32:13;3.83;;;3.53;;
10383;SDS011;5238;43.508;4.980;2023-08-12T02:34:40;4.95;;;4.10;;
10383;SDS011;5238;43.508;4.980;2023-08-12T02:37:07;5.50;;;3.95;;
10383;SDS011;5238;43.508;4.980;2023-08-12T02:39:35;7.22;;;4.30;;
10383;SDS011;5238;43.508;4.980;2023-08-12T02:42:02;4.25;;;3.83;;
10383;SDS011;5238;43.508;4.980;2023-08-12T02:44:29;4.93;;;3.88;;
10383;SDS011;5238;43.508;4.980;2023-08-12T02:46:57;4.90;;;3.85;;
10383;SDS011;5238;43.508;4.980;2023-08-12T02:49:24;5.13;;;4.03;;
10383;SDS011;5238;43.508;4.980;2023-08-12T02:51:51;6.22;;;3.42;;
10383;SDS011;5238;43.508;4.980;2023-08-12T02:54:17;4.88;;;3.78;;
10383;SDS011;5238;43.508;4.980;2023-08-12T02:56:44;4.10;;;3.60;;
10383;SDS011;5238;43.508;4.980;2023-08-12T02:59:11;5.97;;;4.07;;
10383;SDS011;5238;43.508;4.980;2023-08-12T03:01:39;3.97;;;3.58;;
10383;SDS011;5238;43.508;4.980;2023-08-12T03:04:08;5.60;;;4.22;;
10383;SDS011;5238;43.508;4.980;2023-08-12T03:06:36;6.47;;;3.55;;
10383;SDS011;5238;43.508;4.980;2023-08-12T03:09:03;6.45;;;3.97;;
10383;SDS011;5238;43.508;4.980;2023-08-12T03:11:30;5.95;;;4.80;;
10383;SDS011;5238;43.508;4.980;2023-08-12T03:13:56;4.00;;;3.55;;
10383;SDS011;5238;43.508;4.980;2023-08-12T03:16:23;4.63;;;4.18;;
10383;SDS011;5238;43.508;4.980;2023-08-12T03:18:50;5.82;;;4.47;;
10383;SDS011;5238;43.508;4.980;2023-08-12T03:21:19;5.75;;;3.47;;
10383;SDS011;5238;43.508;4.980;2023-08-12T03:23:46;6.22;;;4.13;;
10383;SDS011;5238;43.508;4.980;2023-08-12T03:26:12;4.10;;;3.70;;
10383;SDS011;5238;43.508;4.980;2023-08-12T03:28:40;4.18;;;3.78;;
10383;SDS011;5238;43.508;4.980;2023-08-12T03:31:07;5.13;;;3.90;;
10383;SDS011;5238;43.508;4.980;2023-08-12T03:33:34;4.75;;;3.90;;
10383;SDS011;5238;43.508;4.980;2023-08-12T03:36:01;4.50;;;4.07;;
10383;SDS011;5238;43.508;4.980;2023-08-12T03:38:29;9.60;;;3.80;;
10383;SDS011;5238;43.508;4.980;2023-08-12T03:40:56;7.78;;;4.57;;
10383;SDS011;5238;43.508;4.980;2023-08-12T03:43:23;4.70;;;4.22;;
10383;SDS011;5238;43.508;4.980;2023-08-12T03:45:50;6.55;;;4.20;;
10383;SDS011;5238;43.508;4.980;2023-08-12T03:48:17;4.25;;;3.55;;
10383;SDS011;5238;43.508;4.980;2023-08-12T03:50:44;5.10;;;4.18;;
10383;SDS011;5238;43.508;4.980;2023-08-12T03:53:12;4.22;;;3.22;;
10383;SDS011;5238;43.508;4.980;2023-08-12T03:55:40;4.40;;;4.00;;
10383;SDS011;5238;43.508;4.980;2023-08-12T03:58:07;4.97;;;3.90;;
10383;SDS011;5238;43.508;4.980;2023-08-12T04:00:34;5.22;;;4.25;;
10383;SDS011;5238;43.508;4.980;2023-08-12T04:03:06;4.60;;;3.95;;
10383;SDS011;5238;43.508;4.980;2023-08-12T04:05:33;5.50;;;4.35;;
10383;SDS011;5238;43.508;4.980;2023-08-12T04:08:00;6.53;;;4.07;;
10383;SDS011;5238;43.508;4.980;2023-08-12T04:10:27;4.80;;;4.30;;
10383;SDS011;5238;43.508;4.980;2023-08-12T04:12:55;5.30;;;4.18;;
10383;SDS011;5238;43.508;4.980;2023-08-12T04:15:22;6.90;;;3.67;;
10383;SDS011;5238;43.508;4.980;2023-08-12T04:17:49;6.53;;;3.72;;
10383;SDS011;5238;43.508;4.980;2023-08-12T04:20:16;4.38;;;3.78;;
10383;SDS011;5238;43.508;4.980;2023-08-12T04:22:44;6.95;;;4.15;;
10383;SDS011;5238;43.508;4.980;2023-08-12T04:25:10;5.07;;;4.30;;
10383;SDS011;5238;43.508;4.980;2023-08-12T04:27:37;4.82;;;4.35;;
10383;SDS011;5238;43.508;4.980;2023-08-12T04:30:06;4.07;;;3.72;;
10383;SDS011;5238;43.508;4.980;2023-08-12T04:32:34;5.72;;;4.57;;
10383;SDS011;5238;43.508;4.980;2023-08-12T04:35:01;4.53;;;3.97;;
10383;SDS011;5238;43.508;4.980;2023-08-12T04:37:28;4.65;;;3.90;;
10383;SDS011;5238;43.508;4.980;2023-08-12T04:39:57;8.77;;;4.35;;
10383;SDS011;5238;43.508;4.980;2023-08-12T04:42:24;5.32;;;4.65;;
10383;SDS011;5238;43.508;4.980;2023-08-12T04:44:51;7.78;;;4.72;;
10383;SDS011;5238;43.508;4.980;2023-08-12T04:47:20;5.50;;;3.95;;
10383;SDS011;5238;43.508;4.980;2023-08-12T04:49:46;6.07;;;4.03;;
10383;SDS011;5238;43.508;4.980;2023-08-12T04:52:13;5.75;;;4.10;;
10383;SDS011;5238;43.508;4.980;2023-08-12T04:54:40;4.38;;;3.97;;
10383;SDS011;5238;43.508;4.980;2023-08-12T04:57:07;7.03;;;4.20;;
10383;SDS011;5238;43.508;4.980;2023-08-12T04:59:35;5.43;;;4.95;;
10383;SDS011;5238;43.508;4.980;2023-08-12T05:02:02;5.97;;;4.68;;
10383;SDS011;5238;43.508;4.980;2023-08-12T05:04:30;5.20;;;4.55;;
10383;SDS011;5238;43.508;4.980;2023-08-12T05:06:57;5.07;;;4.22;;
10383;SDS011;5238;43.508;4.980;2023-08-12T05:09:24;6.38;;;4.32;;
10383;SDS011;5238;43.508;4.980;2023-08-12T05:11:51;8.20;;;4.68;;
10383;SDS011;5238;43.508;4.980;2023-08-12T05:14:18;4.93;;;3.97;;
10383;SDS011;5238;43.508;4.980;2023-08-12T05:16:45;6.18;;;4.38;;
10383;SDS011;5238;43.508;4.980;2023-08-12T05:19:12;6.35;;;4.18;;
10383;SDS011;5238;43.508;4.980;2023-08-12T05:21:40;7.80;;;5.00;;
10383;SDS011;5238;43.508;4.980;2023-08-12T05:24:07;5.53;;;4.47;;
10383;SDS011;5238;43.508;4.980;2023-08-12T05:26:36;6.30;;;4.32;;
10383;SDS011;5238;43.508;4.980;2023-08-12T05:29:03;5.47;;;4.50;;
10383;SDS011;5238;43.508;4.980;2023-08-12T05:31:30;7.30;;;5.10;;
10383;SDS011;5238;43.508;4.980;2023-08-12T05:33:57;5.35;;;4.40;;
10383;SDS011;5238;43.508;4.980;2023-08-12T05:36:24;4.95;;;4.40;;
10383;SDS011;5238;43.508;4.980;2023-08-12T05:38:52;7.47;;;4.80;;
10383;SDS011;5238;43.508;4.980;2023-08-12T05:41:19;5.57;;;4.47;;
10383;SDS011;5238;43.508;4.980;2023-08-12T05:43:47;6.32;;;5.22;;
10383;SDS011;5238;43.508;4.980;2023-08-12T05:46:15;5.70;;;4.55;;
10383;SDS011;5238;43.508;4.980;2023-08-12T05:48:42;5.28;;;4.78;;
10383;SDS011;5238;43.508;4.980;2023-08-12T05:51:09;8.50;;;4.70;;
10383;SDS011;5238;43.508;4.980;2023-08-12T05:53:35;5.75;;;5.15;;
10383;SDS011;5238;43.508;4.980;2023-08-12T05:56:04;5.00;;;4.50;;
10383;SDS011;5238;43.508;4.980;2023-08-12T05:58:31;6.68;;;4.80;;
10383;SDS011;5238;43.508;4.980;2023-08-12T06:00:58;5.35;;;4.07;;
10383;SDS011;5238;43.508;4.980;2023-08-12T06:03:25;5.47;;;4.65;;
10383;SDS011;5238;43.508;4.980;2023-08-12T06:05:52;8.60;;;4.57;;
10383;SDS011;5238;43.508;4.980;2023-08-12T06:08:18;5.45;;;4.95;;
10383;SDS011;5238;43.508;4.980;2023-08-12T06:10:45;12.02;;;5.13;;
10383;SDS011;5238;43.508;4.980;2023-08-12T06:13:14;5.95;;;5.20;;
10383;SDS011;5238;43.508;4.980;2023-08-12T06:15:41;6.35;;;4.93;;
10383;SDS011;5238;43.508;4.980;2023-08-12T06:18:08;8.90;;;5.00;;
10383;SDS011;5238;43.508;4.980;2023-08-12T06:20:35;6.28;;;5.40;;
10383;SDS011;5238;43.508;4.980;2023-08-12T06:23:02;9.15;;;5.65;;
10383;SDS011;5238;43.508;4.980;2023-08-12T06:25:29;9.85;;;5.13;;
10383;SDS011;5238;43.508;4.980;2023-08-12T06:27:56;6.13;;;4.95;;
10383;SDS011;5238;43.508;4.980;2023-08-12T06:30:25;9.30;;;5.75;;
10383;SDS011;5238;43.508;4.980;2023-08-12T06:32:51;8.50;;;5.25;;
10383;SDS011;5238;43.508;4.980;2023-08-12T06:35:18;7.53;;;5.00;;
10383;SDS011;5238;43.508;4.980;2023-08-12T06:37:45;5.95;;;5.13;;
10383;SDS011;5238;43.508;4.980;2023-08-12T06:40:13;8.27;;;4.68;;
10383;SDS011;5238;43.508;4.980;2023-08-12T06:42:40;7.07;;;4.85;;
10383;SDS011;5238;43.508;4.980;2023-08-12T06:45:07;5.65;;;4.47;;
10383;SDS011;5238;43.508;4.980;2023-08-12T06:47:36;5.63;;;4.38;;
10383;SDS011;5238;43.508;4.980;2023-08-12T06:50:03;8.90;;;5.00;;
10383;SDS011;5238;43.508;4.980;2023-08-12T06:52:31;7.32;;;5.18;;
10383;SDS011;5238;43.508;4.980;2023-08-12T06:54:58;4.55;;;4.05;;
10383;SDS011;5238;43.508;4.980;2023-08-12T06:57:24;5.03;;;4.53;;
10383;SDS011;5238;43.508;4.980;2023-08-12T06:59:51;5.18;;;4.43;;
10383;SDS011;5238;43.508;4.980;2023-08-12T07:02:18;7.45;;;5.00;;
10383;SDS011;5238;43.508;4.980;2023-08-12T07:04:47;4.80;;;3.70;;
10383;SDS011;5238;43.508;4.980;2023-08-12T07:07:14;5.22;;;3.60;;
10383;SDS011;5238;43.508;4.980;2023-08-12T07:09:40;7.40;;;4.50;;
10383;SDS011;5238;43.508;4.980;2023-08-12T07:12:07;5.25;;;4.22;;
10383;SDS011;5238;43.508;4.980;2023-08-12T07:14:34;7.55;;;4.55;;
10383;SDS011;5238;43.508;4.980;2023-08-12T07:17:02;6.28;;;4.55;;
10383;SDS011;5238;43.508;4.980;2023-08-12T07:19:29;6.68;;;4.38;;
10383;SDS011;5238;43.508;4.980;2023-08-12T07:21:57;5.30;;;4.38;;
10383;SDS011;5238;43.508;4.980;2023-08-12T07:24:24;5.22;;;4.50;;
10383;SDS011;5238;43.508;4.980;2023-08-12T07:26:51;4.75;;;4.35;;
10383;SDS011;5238;43.508;4.980;2023-08-12T07:29:18;4.75;;;3.90;;
10383;SDS011;5238;43.508;4.980;2023-08-12T07:31:45;6.53;;;4.97;;
10383;SDS011;5238;43.508;4.980;2023-08-12T07:34:12;5.97;;;4.50;;
10383;SDS011;5238;43.508;4.980;2023-08-12T07:36:39;6.28;;;4.30;;
10383;SDS011;5238;43.508;4.980;2023-08-12T07:39:07;5.05;;;4.05;;
10383;SDS011;5238;43.508;4.980;2023-08-12T07:41:34;6.35;;;4.10;;
10383;SDS011;5238;43.508;4.980;2023-08-12T07:44:01;6.97;;;4.45;;
10383;SDS011;5238;43.508;4.980;2023-08-12T07:46:28;9.73;;;4.85;;
10383;SDS011;5238;43.508;4.980;2023-08-12T07:48:55;8.65;;;4.90;;
10383;SDS011;5238;43.508;4.980;2023-08-12T07:51:22;5.63;;;4.35;;
10383;SDS011;5238;43.508;4.980;2023-08-12T07:53:49;6.50;;;3.78;;
10383;SDS011;5238;43.508;4.980;2023-08-12T07:56:17;4.32;;;3.22;;
10383;SDS011;5238;43.508;4.980;2023-08-12T07:58:44;4.35;;;3.47;;
10383;SDS011;5238;43.508;4.980;2023-08-12T08:01:12;4.25;;;3.13;;
10383;SDS011;5238;43.508;4.980;2023-08-12T08:03:39;4.63;;;3.42;;
10383;SDS011;5238;43.508;4.980;2023-08-12T08:06:06;3.22;;;2.90;;
10383;SDS011;5238;43.508;4.980;2023-08-12T08:08:33;4.75;;;3.75;;
10383;SDS011;5238;43.508;4.980;2023-08-12T08:11:00;6.10;;;3.67;;
10383;SDS011;5238;43.508;4.980;2023-08-12T08:13:29;5.78;;;3.45;;
10383;SDS011;5238;43.508;4.980;2023-08-12T08:15:56;3.88;;;3.42;;
10383;SDS011;5238;43.508;4.980;2023-08-12T08:18:23;4.95;;;3.05;;
10383;SDS011;5238;43.508;4.980;2023-08-12T08:20:49;5.32;;;3.40;;
10383;SDS011;5238;43.508;4.980;2023-08-12T08:23:16;3.70;;;3.15;;
10383;SDS011;5238;43.508;4.980;2023-08-12T08:25:43;5.82;;;3.60;;
10383;SDS011;5238;43.508;4.980;2023-08-12T08:28:11;5.43;;;3.67;;
10383;SDS011;5238;43.508;4.980;2023-08-12T08:30:39;4.47;;;4.03;;
10383;SDS011;5238;43.508;4.980;2023-08-12T08:33:06;4.53;;;3.60;;
10383;SDS011;5238;43.508;4.980;2023-08-12T08:35:33;5.97;;;3.65;;
10383;SDS011;5238;43.508;4.980;2023-08-12T08:38:00;4.00;;;3.35;;
10383;SDS011;5238;43.508;4.980;2023-08-12T08:40:27;5.40;;;3.50;;
10383;SDS011;5238;43.508;4.980;2023-08-12T08:42:54;5.55;;;4.00;;
10383;SDS011;5238;43.508;4.980;2023-08-12T08:45:29;5.82;;;3.67;;
10383;SDS011;5238;43.508;4.980;2023-08-12T08:48:00;4.95;;;3.50;;
10383;SDS011;5238;43.508;4.980;2023-08-12T08:50:28;5.47;;;3.72;;
10383;SDS011;5238;43.508;4.980;2023-08-12T08:52:56;6.25;;;4.28;;
10383;SDS011;5238;43.508;4.980;2023-08-12T08:55:23;4.43;;;3.58;;
10383;SDS011;5238;43.508;4.980;2023-08-12T08:57:50;6.38;;;4.43;;
10383;SDS011;5238;43.508;4.980;2023-08-12T09:00:18;5.93;;;4.93;;
10383;SDS011;5238;43.508;4.980;2023-08-12T09:02:45;6.38;;;5.28;;
10383;SDS011;5238;43.508;4.980;2023-08-12T09:05:16;8.02;;;5.47;;
10383;SDS011;5238;43.508;4.980;2023-08-12T09:07:44;9.25;;;6.10;;
10383;SDS011;5238;43.508;4.980;2023-08-12T09:10:11;8.60;;;6.00;;
10383;SDS011;5238;43.508;4.980;2023-08-12T09:12:39;5.60;;;4.68;;
10383;SDS011;5238;43.508;4.980;2023-08-12T09:15:06;7.30;;;4.00;;
10383;SDS011;5238;43.508;4.980;2023-08-12T09:17:34;5.32;;;3.65;;
10383;SDS011;5238;43.508;4.980;2023-08-12T09:20:01;5.47;;;3.38;;
10383;SDS011;5238;43.508;4.980;2023-08-12T09:22:34;4.05;;;3.10;;
10383;SDS011;5238;43.508;4.980;2023-08-12T09:25:01;4.82;;;3.42;;
10383;SDS011;5238;43.508;4.980;2023-08-12T09:27:30;4.18;;;3.35;;
10383;SDS011;5238;43.508;4.980;2023-08-12T09:29:57;6.65;;;3.47;;
10383;SDS011;5238;43.508;4.980;2023-08-12T09:32:25;3.45;;;2.70;;
10383;SDS011;5238;43.508;4.980;2023-08-12T09:34:53;5.15;;;3.22;;
10383;SDS011;5238;43.508;4.980;2023-08-12T09:37:23;5.50;;;3.90;;
10383;SDS011;5238;43.508;4.980;2023-08-12T09:39:52;6.68;;;3.72;;
10383;SDS011;5238;43.508;4.980;2023-08-12T09:42:19;5.03;;;3.00;;
10383;SDS011;5238;43.508;4.980;2023-08-12T09:44:46;4.70;;;4.03;;
10383;SDS011;5238;43.508;4.980;2023-08-12T09:47:13;4.13;;;2.78;;
10383;SDS011;5238;43.508;4.980;2023-08-12T09:49:40;3.47;;;2.67;;
10383;SDS011;5238;43.508;4.980;2023-08-12T09:52:08;3.25;;;2.55;;
10383;SDS011;5238;43.508;4.980;2023-08-12T09:54:35;6.60;;;3.25;;
10383;SDS011;5238;43.508;4.980;2023-08-12T09:57:04;7.22;;;4.30;;
10383;SDS011;5238;43.508;4.980;2023-08-12T09:59:33;5.60;;;3.95;;
10383;SDS011;5238;43.508;4.980;2023-08-12T10:02:02;4.97;;;2.97;;
10383;SDS011;5238;43.508;4.980;2023-08-12T10:04:33;4.38;;;3.13;;
10383;SDS011;5238;43.508;4.980;2023-08-12T10:07:05;5.82;;;3.28;;
10383;SDS011;5238;43.508;4.980;2023-08-12T10:09:32;4.13;;;3.70;;
10383;SDS011;5238;43.508;4.980;2023-08-12T10:12:01;4.13;;;3.70;;
10383;SDS011;5238;43.508;4.980;2023-08-12T10:14:29;13.55;;;4.53;;
10383;SDS011;5238;43.508;4.980;2023-08-12T10:16:57;17.58;;;6.13;;
10383;SDS011;5238;43.508;4.980;2023-08-12T10:19:24;18.15;;;5.72;;
10383;SDS011;5238;43.508;4.980;2023-08-12T10:21:54;9.90;;;3.90;;
10383;SDS011;5238;43.508;4.980;2023-08-12T10:24:23;3.67;;;3.38;;
10383;SDS011;5238;43.508;4.980;2023-08-12T10:26:51;4.63;;;3.22;;
10383;SDS011;5238;43.508;4.980;2023-08-12T10:29:18;6.05;;;3.50;;
10383;SDS011;5238;43.508;4.980;2023-08-12T10:31:47;6.15;;;3.88;;
10383;SDS011;5238;43.508;4.980;2023-08-12T10:34:17;6.45;;;3.72;;
10383;SDS011;5238;43.508;4.980;2023-08-12T10:36:46;4.18;;;3.08;;
10383;SDS011;5238;43.508;4.980;2023-08-12T10:39:13;4.05;;;2.97;;
10383;SDS011;5238;43.508;4.980;2023-08-12T10:41:46;5.38;;;2.95;;
10383;SDS011;5238;43.508;4.980;2023-08-12T10:44:17;3.55;;;3.08;;
10383;SDS011;5238;43.508;4.980;2023-08-12T10:46:52;3.38;;;2.80;;
10383;SDS011;5238;43.508;4.980;2023-08-12T10:49:20;4.70;;;3.00;;
10383;SDS011;5238;43.508;4.980;2023-08-12T10:51:48;3.30;;;3.00;;
10383;SDS011;5238;43.508;4.980;2023-08-12T10:54:17;4.38;;;3.35;;
10383;SDS011;5238;43.508;4.980;2023-08-12T10:57:06;5.20;;;3.85;;
10383;SDS011;5238;43.508;4.980;2023-08-12T10:59:51;3.42;;;3.13;;
10383;SDS011;5238;43.508;4.980;2023-08-12T11:02:27;3.25;;;2.55;;
10383;SDS011;5238;43.508;4.980;2023-08-12T11:04:56;3.30;;;2.80;;
10383;SDS011;5238;43.508;4.980;2023-08-12T11:07:28;2.45;;;2.25;;
10383;SDS011;5238;43.508;4.980;2023-08-12T11:09:59;4.40;;;2.15;;
10383;SDS011;5238;43.508;4.980;2023-08-12T11:12:31;2.60;;;2.40;;
10383;SDS011;5238;43.508;4.980;2023-08-12T11:15:06;2.70;;;2.42;;
10383;SDS011;5238;43.508;4.980;2023-08-12T11:17:36;2.97;;;2.53;;
10383;SDS011;5238;43.508;4.980;2023-08-12T11:20:04;2.47;;;2.20;;
10383;SDS011;5238;43.508;4.980;2023-08-12T11:22:35;2.70;;;2.50;;
10383;SDS011;5238;43.508;4.980;2023-08-12T11:25:04;3.58;;;2.40;;
10383;SDS011;5238;43.508;4.980;2023-08-12T11:27:41;2.75;;;2.55;;
10383;SDS011;5238;43.508;4.980;2023-08-12T11:30:10;3.17;;;2.63;;
10383;SDS011;5238;43.508;4.980;2023-08-12T11:32:41;9.90;;;3.47;;
10383;SDS011;5238;43.508;4.980;2023-08-12T11:35:11;2.90;;;2.67;;
10383;SDS011;5238;43.508;4.980;2023-08-12T11:37:39;3.13;;;2.60;;
10383;SDS011;5238;43.508;4.980;2023-08-12T11:40:08;2.20;;;2.03;;
10383;SDS011;5238;43.508;4.980;2023-08-12T11:42:36;3.25;;;2.20;;
10383;SDS011;5238;43.508;4.980;2023-08-12T11:45:04;2.78;;;2.55;;
10383;SDS011;5238;43.508;4.980;2023-08-12T11:47:32;5.38;;;2.67;;
10383;SDS011;5238;43.508;4.980;2023-08-12T11:50:02;6.30;;;3.08;;
10383;SDS011;5238;43.508;4.980;2023-08-12T11:52:30;3.50;;;2.53;;
10383;SDS011;5238;43.508;4.980;2023-08-12T11:54:58;2.85;;;2.65;;
10383;SDS011;5238;43.508;4.980;2023-08-12T11:57:26;3.60;;;2.50;;
10383;SDS011;5238;43.508;4.980;2023-08-12T11:59:53;3.47;;;2.70;;
10383;SDS011;5238;43.508;4.980;2023-08-12T12:02:25;2.67;;;2.47;;
10383;SDS011;5238;43.508;4.980;2023-08-12T12:04:52;3.00;;;2.80;;
10383;SDS011;5238;43.508;4.980;2023-08-12T12:07:21;3.20;;;2.85;;
10383;SDS011;5238;43.508;4.980;2023-08-12T12:09:50;2.85;;;2.58;;
10383;SDS011;5238;43.508;4.980;2023-08-12T12:12:21;2.72;;;2.38;;
10383;SDS011;5238;43.508;4.980;2023-08-12T12:14:50;2.70;;;2.50;;
10383;SDS011;5238;43.508;4.980;2023-08-12T12:17:17;4.40;;;3.25;;
10383;SDS011;5238;43.508;4.980;2023-08-12T12:19:46;3.03;;;2.83;;
10383;SDS011;5238;43.508;4.980;2023-08-12T12:22:13;3.33;;;2.90;;
10383;SDS011;5238;43.508;4.980;2023-08-12T12:24:45;3.17;;;2.63;;
10383;SDS011;5238;43.508;4.980;2023-08-12T12:27:12;3.47;;;3.13;;
10383;SDS011;5238;43.508;4.980;2023-08-12T12:29:39;4.18;;;2.83;;
10383;SDS011;5238;43.508;4.980;2023-08-12T12:32:06;5.20;;;4.00;;
10383;SDS011;5238;43.508;4.980;2023-08-12T12:34:34;3.28;;;2.75;;
10383;SDS011;5238;43.508;4.980;2023-08-12T12:37:01;3.65;;;3.30;;
10383;SDS011;5238;43.508;4.980;2023-08-12T12:39:28;2.65;;;2.25;;
10383;SDS011;5238;43.508;4.980;2023-08-12T12:41:57;2.60;;;2.40;;
10383;SDS011;5238;43.508;4.980;2023-08-12T12:44:25;2.83;;;2.60;;
10383;SDS011;5238;43.508;4.980;2023-08-12T12:46:52;3.72;;;2.33;;
10383;SDS011;5238;43.508;4.980;2023-08-12T12:49:19;3.95;;;2.88;;
10383;SDS011;5238;43.508;4.980;2023-08-12T12:51:46;2.67;;;2.47;;
10383;SDS011;5238;43.508;4.980;2023-08-12T12:54:13;2.40;;;2.30;;
10383;SDS011;5238;43.508;4.980;2023-08-12T12:56:40;2.78;;;2.20;;
10383;SDS011;5238;43.508;4.980;2023-08-12T12:59:09;3.40;;;2.60;;
10383;SDS011;5238;43.508;4.980;2023-08-12T13:01:36;2.50;;;2.28;;
10383;SDS011;5238;43.508;4.980;2023-08-12T13:04:03;2.83;;;2.63;;
10383;SDS011;5238;43.508;4.980;2023-08-12T13:06:31;2.30;;;2.17;;
10383;SDS011;5238;43.508;4.980;2023-08-12T13:08:58;3.20;;;2.90;;
10383;SDS011;5238;43.508;4.980;2023-08-12T13:11:25;2.10;;;1.90;;
10383;SDS011;5238;43.508;4.980;2023-08-12T13:13:52;2.83;;;2.42;;
10383;SDS011;5238;43.508;4.980;2023-08-12T13:16:21;2.70;;;2.30;;
10383;SDS011;5238;43.508;4.980;2023-08-12T13:18:48;2.78;;;2.53;;
10383;SDS011;5238;43.508;4.980;2023-08-12T13:21:15;2.72;;;2.53;;
10383;SDS011;5238;43.508;4.980;2023-08-12T13:23:42;3.50;;;2.78;;
10383;SDS011;5238;43.508;4.980;2023-08-12T13:26:09;2.58;;;2.38;;
10383;SDS011;5238;43.508;4.980;2023-08-12T13:28:36;3.35;;;2.50;;
10383;SDS011;5238;43.508;4.980;2023-08-12T13:31:03;3.17;;;2.40;;
10383;SDS011;5238;43.508;4.980;2023-08-12T13:33:36;3.30;;;2.55;;
10383;SDS011;5238;43.508;4.980;2023-08-12T13:36:03;2.97;;;2.67;;
10383;SDS011;5238;43.508;4.980;2023-08-12T13:38:30;2.88;;;2.67;;
10383;SDS011;5238;43.508;4.980;2023-08-12T13:40:57;3.25;;;2.92;;
10383;SDS011;5238;43.508;4.980;2023-08-12T13:43:24;4.63;;;3.22;;
10383;SDS011;5238;43.508;4.980;2023-08-12T13:45:51;2.95;;;2.72;;
10383;SDS011;5238;43.508;4.980;2023-08-12T13:48:18;3.33;;;2.35;;
10383;SDS011;5238;43.508;4.980;2023-08-12T13:50:46;3.35;;;2.78;;
10383;SDS011;5238;43.508;4.980;2023-08-12T13:53:14;3.92;;;3.53;;
10383;SDS011;5238;43.508;4.980;2023-08-12T13:55:41;4.60;;;3.00;;
10383;SDS011;5238;43.508;4.980;2023-08-12T13:58:09;3.95;;;2.90;;
10383;SDS011;5238;43.508;4.980;2023-08-12T14:00:37;3.58;;;2.90;;
10383;SDS011;5238;43.508;4.980;2023-08-12T14:03:04;3.47;;;3.17;;
10383;SDS011;5238;43.508;4.980;2023-08-12T14:05:31;3.90;;;3.47;;
10383;SDS011;5238;43.508;4.980;2023-08-12T14:07:59;5.03;;;3.42;;
10383;SDS011;5238;43.508;4.980;2023-08-12T14:10:27;3.70;;;3.20;;
10383;SDS011;5238;43.508;4.980;2023-08-12T14:12:54;2.88;;;2.67;;
10383;SDS011;5238;43.508;4.980;2023-08-12T14:15:20;4.32;;;3.63;;
10383;SDS011;5238;43.508;4.980;2023-08-12T14:17:47;3.53;;;3.20;;
10383;SDS011;5238;43.508;4.980;2023-08-12T14:20:14;4.15;;;2.88;;
10383;SDS011;5238;43.508;4.980;2023-08-12T14:22:41;4.45;;;3.13;;
10383;SDS011;5238;43.508;4.980;2023-08-12T14:25:11;3.60;;;3.30;;
10383;SDS011;5238;43.508;4.980;2023-08-12T14:27:38;4.78;;;4.20;;
10383;SDS011;5238;43.508;4.980;2023-08-12T14:30:06;4.28;;;3.63;;
10383;SDS011;5238;43.508;4.980;2023-08-12T14:32:34;4.78;;;4.38;;
10383;SDS011;5238;43.508;4.980;2023-08-12T14:35:01;4.57;;;4.25;;
10383;SDS011;5238;43.508;4.980;2023-08-12T14:37:29;5.15;;;3.88;;
10383;SDS011;5238;43.508;4.980;2023-08-12T14:39:56;5.25;;;4.65;;
10383;SDS011;5238;43.508;4.980;2023-08-12T14:42:24;4.22;;;3.70;;
10383;SDS011;5238;43.508;4.980;2023-08-12T14:44:51;4.43;;;3.88;;
10383;SDS011;5238;43.508;4.980;2023-08-12T14:47:18;3.40;;;3.10;;
10383;SDS011;5238;43.508;4.980;2023-08-12T14:49:46;5.53;;;3.63;;
10383;SDS011;5238;43.508;4.980;2023-08-12T14:52:15;3.47;;;2.95;;
10383;SDS011;5238;43.508;4.980;2023-08-12T14:54:43;4.47;;;3.75;;
10383;SDS011;5238;43.508;4.980;2023-08-12T14:57:10;5.13;;;4.20;;
10383;SDS011;5238;43.508;4.980;2023-08-12T14:59:39;3.88;;;3.17;;
10383;SDS011;5238;43.508;4.980;2023-08-12T15:02:06;4.50;;;4.10;;
10383;SDS011;5238;43.508;4.980;2023-08-12T15:04:33;5.63;;;4.32;;